createdAt,value
2022-08-21T00:00:29.236Z,7.20
2022-08-21T00:03:32.304Z,7.15
2022-08-21T00:06:35.310Z,7.13
2022-08-21T00:09:38.599Z,7.07
2022-08-21T00:12:41.844Z,7.20
2022-08-21T00:15:44.183Z,7.13
2022-08-21T00:18:46.452Z,7.25
2022-08-21T00:21:48.666Z,7.22
2022-08-21T00:24:50.941Z,7.53
2022-08-21T00:27:53.713Z,7.10
2022-08-21T00:30:57.664Z,6.47
2022-08-21T00:34:00.765Z,6.13
2022-08-21T00:37:03.355Z,5.70
2022-08-21T00:40:08.512Z,5.95
2022-08-21T00:43:13.567Z,5.78
2022-08-21T00:46:15.755Z,5.07
2022-08-21T00:49:18.473Z,5.50
2022-08-21T00:52:23.926Z,5.40
2022-08-21T00:55:26.558Z,5.00
2022-08-21T00:58:31.780Z,5.40
2022-08-21T01:01:37.116Z,5.90
2022-08-21T01:04:39.623Z,5.50
2022-08-21T01:07:42.623Z,7.53
2022-08-21T01:10:48.800Z,7.70
2022-08-21T01:14:01.360Z,6.88
2022-08-21T01:17:04.310Z,7.80
2022-08-21T01:20:09.382Z,7.43
2022-08-21T01:23:11.719Z,7.38
2022-08-21T01:26:17.188Z,7.28
2022-08-21T01:29:48.280Z,7.30
2022-08-21T01:32:51.996Z,7.50
2022-08-21T01:35:54.230Z,7.45
2022-08-21T01:38:57.785Z,7.68
2022-08-21T01:42:00.097Z,6.97
2022-08-21T01:45:02.304Z,6.63
2022-08-21T01:48:04.740Z,7.70
2022-08-21T01:51:07.167Z,8.20
2022-08-21T01:54:09.609Z,7.47
2022-08-21T01:57:13.292Z,8.35
2022-08-21T02:00:19.703Z,7.78
2022-08-21T02:03:26.282Z,7.63
2022-08-21T02:06:34.342Z,7.45
2022-08-21T02:09:38.159Z,8.57
2022-08-21T02:12:42.488Z,7.35
2022-08-21T02:15:45.423Z,6.60
2022-08-21T02:18:48.252Z,7.80
2022-08-21T02:21:50.455Z,7.13
2022-08-21T02:24:54.657Z,8.45
2022-08-21T02:27:58.380Z,7.80
2022-08-21T02:31:02.181Z,7.35
2022-08-21T02:34:04.853Z,8.10
2022-08-21T02:37:07.096Z,7.82
2022-08-21T02:40:12.130Z,9.25
2022-08-21T02:43:16.312Z,8.10
2022-08-21T02:46:21.653Z,8.50
2022-08-21T02:49:23.843Z,7.93
2022-08-21T02:52:26.037Z,7.63
2022-08-21T02:55:30.408Z,7.82
2022-08-21T02:58:47.313Z,7.22
2022-08-21T03:01:49.699Z,7.30
2022-08-21T03:04:54.377Z,8.37
2022-08-21T03:07:56.664Z,8.88
2022-08-21T03:11:01.947Z,8.85
2022-08-21T03:14:06.290Z,8.23
2022-08-21T03:17:08.557Z,8.55
2022-08-21T03:20:11.379Z,7.47
2022-08-21T03:23:18.452Z,8.32
2022-08-21T03:26:21.385Z,8.52
2022-08-21T03:29:24.005Z,9.25
2022-08-21T03:32:26.265Z,10.30
2022-08-21T03:35:30.374Z,8.63
2022-08-21T03:38:35.551Z,8.60
2022-08-21T03:41:37.721Z,8.50
2022-08-21T03:44:40.856Z,8.82
2022-08-21T03:48:03.861Z,8.98
2022-08-21T03:51:07.415Z,8.90
2022-08-21T03:54:09.687Z,8.90
2022-08-21T03:57:12.148Z,7.97
2022-08-21T04:00:16.162Z,8.52
2022-08-21T04:03:19.222Z,8.07
2022-08-21T04:06:21.447Z,7.90
2022-08-21T04:09:24.306Z,7.97
2022-08-21T04:12:26.593Z,7.85
2022-08-21T04:15:29.423Z,7.82
2022-08-21T04:18:31.654Z,7.45
2022-08-21T04:21:33.930Z,8.10
2022-08-21T04:24:36.220Z,8.43
2022-08-21T04:27:38.453Z,8.15
2022-08-21T04:30:40.657Z,7.80
2022-08-21T04:33:43.252Z,7.10
2022-08-21T04:36:45.704Z,7.60
2022-08-21T04:39:52.888Z,8.43
2022-08-21T04:43:00.980Z,8.77
2022-08-21T04:46:03.248Z,8.98
2022-08-21T04:49:07.222Z,8.18
2022-08-21T04:52:09.567Z,8.70
2022-08-21T04:55:12.097Z,9.20
2022-08-21T04:58:16.694Z,8.65
2022-08-21T05:01:21.886Z,7.85
2022-08-21T05:04:26.577Z,8.07
2022-08-21T05:07:41.988Z,8.30
2022-08-21T05:10:45.566Z,8.30
2022-08-21T05:13:57.173Z,8.60
2022-08-21T05:17:00.067Z,8.50
2022-08-21T05:20:02.976Z,8.10
2022-08-21T05:23:13.266Z,8.27
2022-08-21T05:26:18.686Z,8.52
2022-08-21T05:29:21.450Z,7.95
2022-08-21T05:32:25.068Z,7.82
2022-08-21T05:35:29.265Z,7.65
2022-08-21T05:38:31.431Z,7.90
2022-08-21T05:41:34.379Z,7.20
2022-08-21T05:44:36.667Z,7.45
2022-08-21T05:47:38.827Z,6.78
2022-08-21T05:50:42.083Z,7.13
2022-08-21T05:53:44.803Z,6.80
2022-08-21T05:56:47.021Z,7.45
2022-08-21T05:59:50.664Z,7.20
2022-08-21T06:02:53.028Z,6.72
2022-08-21T06:05:56.700Z,7.20
2022-08-21T06:08:58.898Z,7.03
2022-08-21T06:12:09.585Z,7.50
2022-08-21T06:15:12.168Z,8.15
2022-08-21T06:18:14.689Z,8.50
2022-08-21T06:21:17.000Z,8.55
2022-08-21T06:24:19.177Z,7.53
2022-08-21T06:27:24.713Z,8.55
2022-08-21T06:30:28.831Z,9.02
2022-08-21T06:33:32.822Z,7.90
2022-08-21T06:36:35.465Z,8.70
2022-08-21T06:39:40.901Z,8.90
2022-08-21T06:42:46.810Z,8.90
2022-08-21T06:45:51.999Z,8.80
2022-08-21T06:48:54.556Z,7.95
2022-08-21T06:51:57.495Z,8.57
2022-08-21T06:54:59.701Z,7.70
2022-08-21T06:58:02.223Z,7.40
2022-08-21T07:01:05.649Z,6.75
2022-08-21T07:04:08.474Z,7.22
2022-08-21T07:07:10.739Z,6.88
2022-08-21T07:10:21.827Z,6.80
2022-08-21T07:13:24.916Z,6.95
2022-08-21T07:16:27.556Z,6.35
2022-08-21T07:19:30.095Z,6.65
2022-08-21T07:22:32.491Z,6.38
2022-08-21T07:25:35.582Z,6.10
2022-08-21T07:28:37.905Z,6.18
2022-08-21T07:31:40.081Z,5.90
2022-08-21T07:34:43.147Z,5.57
2022-08-21T07:37:45.871Z,5.57
2022-08-21T07:40:49.047Z,5.90
2022-08-21T07:43:52.795Z,5.65
2022-08-21T07:46:55.795Z,5.63
2022-08-21T07:49:58.400Z,5.18
2022-08-21T07:53:00.931Z,4.82
2022-08-21T07:56:04.561Z,5.00
2022-08-21T07:59:10.612Z,5.32
2022-08-21T08:02:23.681Z,5.18
2022-08-21T08:05:30.041Z,4.85
2022-08-21T08:08:33.014Z,5.28
2022-08-21T08:11:38.911Z,5.23
2022-08-21T08:14:42.035Z,4.75
2022-08-21T08:17:44.823Z,5.30
2022-08-21T08:20:47.237Z,5.00
2022-08-21T08:23:49.931Z,5.00
2022-08-21T08:26:53.694Z,5.00
2022-08-21T08:29:56.646Z,4.97
2022-08-21T08:33:00.783Z,4.82
2022-08-21T08:36:07.939Z,5.05
2022-08-21T08:39:10.974Z,5.05
2022-08-21T08:42:33.120Z,5.03
2022-08-21T08:45:39.090Z,4.47
2022-08-21T08:48:54.026Z,5.20
2022-08-21T08:52:30.168Z,5.43
2022-08-21T08:55:39.921Z,4.93
2022-08-21T08:58:43.658Z,5.37
2022-08-21T09:01:51.935Z,5.07
2022-08-21T09:04:54.898Z,5.15
2022-08-21T09:08:09.473Z,5.05
2022-08-21T09:11:42.009Z,5.13
2022-08-21T09:14:59.954Z,5.07
2022-08-21T09:18:36.690Z,5.60
2022-08-21T09:21:53.518Z,4.88
2022-08-21T09:25:46.882Z,5.20
2022-08-21T09:28:54.275Z,5.78
2022-08-21T09:31:56.902Z,5.43
2022-08-21T09:35:17.799Z,5.30
2022-08-21T09:38:33.259Z,4.93
2022-08-21T09:41:44.816Z,5.28
2022-08-21T09:44:49.084Z,5.25
2022-08-21T09:47:51.705Z,5.50
2022-08-21T09:50:54.944Z,5.55
2022-08-21T09:54:06.139Z,5.90
2022-08-21T09:57:30.525Z,5.43
2022-08-21T10:00:34.746Z,5.28
2022-08-21T10:03:37.317Z,5.07
2022-08-21T10:06:39.814Z,5.20
2022-08-21T10:09:43.022Z,5.13
2022-08-21T10:13:12.267Z,5.85
2022-08-21T10:16:46.829Z,5.25
2022-08-21T10:20:12.825Z,5.43
2022-08-21T10:23:49.365Z,5.40
2022-08-21T10:27:06.180Z,5.18
2022-08-21T10:30:13.394Z,5.40
2022-08-21T10:33:33.763Z,5.50
2022-08-21T10:36:36.783Z,5.07
2022-08-21T10:40:00.914Z,5.43
2022-08-21T10:43:37.128Z,5.45
2022-08-21T10:46:48.010Z,4.95
2022-08-21T10:50:02.067Z,5.45
2022-08-21T10:53:16.085Z,5.17
2022-08-21T10:56:23.790Z,5.32
2022-08-21T10:59:38.846Z,5.00
2022-08-21T11:02:51.136Z,5.38
2022-08-21T11:06:05.666Z,4.78
2022-08-21T11:09:16.254Z,5.30
2022-08-21T11:12:37.112Z,5.15
2022-08-21T11:15:50.868Z,5.03
2022-08-21T11:19:25.718Z,5.10
2022-08-21T11:22:55.054Z,5.30
2022-08-21T11:26:13.503Z,5.83
2022-08-21T11:29:29.025Z,5.20
2022-08-21T11:32:44.560Z,4.93
2022-08-21T11:35:55.943Z,4.70
2022-08-21T11:39:16.435Z,5.00
2022-08-21T11:42:27.319Z,4.73
2022-08-21T11:45:52.859Z,5.10
2022-08-21T11:49:09.958Z,4.57
2022-08-21T11:52:36.430Z,4.93
2022-08-21T11:55:58.102Z,5.40
2022-08-21T11:59:04.237Z,5.03
2022-08-21T12:02:12.333Z,4.70
2022-08-21T12:05:36.068Z,5.25
2022-08-21T12:08:41.370Z,5.13
2022-08-21T12:11:49.808Z,5.18
2022-08-21T12:15:04.300Z,5.37
2022-08-21T12:18:31.570Z,5.30
2022-08-21T12:21:36.065Z,5.20
2022-08-21T12:24:49.306Z,5.63
2022-08-21T12:27:54.787Z,5.03
2022-08-21T12:30:58.229Z,5.10
2022-08-21T12:34:03.707Z,5.15
2022-08-21T12:37:28.850Z,5.53
2022-08-21T12:40:42.156Z,5.63
2022-08-21T12:44:05.554Z,5.93
2022-08-21T12:47:16.315Z,5.60
2022-08-21T12:50:24.466Z,5.65
2022-08-21T12:53:34.631Z,5.80
2022-08-21T12:56:40.069Z,5.00
2022-08-21T12:59:42.245Z,5.20
2022-08-21T13:02:50.655Z,5.40
2022-08-21T13:05:54.736Z,4.85
2022-08-21T13:09:00.267Z,4.97
2022-08-21T13:12:02.573Z,4.75
2022-08-21T13:15:09.039Z,4.78
2022-08-21T13:18:24.922Z,4.77
2022-08-21T13:21:42.326Z,4.70
2022-08-21T13:24:48.903Z,4.30
2022-08-21T13:28:12.552Z,4.70
2022-08-21T13:31:19.728Z,4.35
2022-08-21T13:34:28.407Z,4.30
2022-08-21T13:37:30.632Z,4.50
2022-08-21T13:40:52.544Z,4.18
2022-08-21T13:44:04.341Z,4.50
2022-08-21T13:47:08.296Z,4.40
2022-08-21T13:50:23.326Z,4.57
2022-08-21T13:53:37.993Z,4.47
2022-08-21T13:56:46.383Z,4.88
2022-08-21T13:59:48.600Z,4.60
2022-08-21T14:02:54.014Z,4.38
2022-08-21T14:06:00.490Z,4.70
2022-08-21T14:09:10.695Z,4.72
2022-08-21T14:12:34.067Z,4.50
2022-08-21T14:15:36.767Z,4.60
2022-08-21T14:19:11.740Z,3.97
2022-08-21T14:22:40.217Z,3.73
2022-08-21T14:25:45.131Z,3.35
2022-08-21T14:28:47.842Z,3.35
2022-08-21T14:31:59.325Z,3.10
2022-08-21T14:35:02.526Z,2.80
2022-08-21T14:38:22.306Z,2.77
2022-08-21T14:41:28.984Z,2.40
2022-08-21T14:44:33.309Z,2.78
2022-08-21T14:47:36.609Z,2.70
2022-08-21T14:50:40.209Z,2.50
2022-08-21T14:53:43.205Z,2.20
2022-08-21T14:56:46.092Z,2.50
2022-08-21T14:59:49.689Z,2.58
2022-08-21T15:02:53.098Z,2.60
2022-08-21T15:05:56.195Z,2.40
2022-08-21T15:08:59.595Z,2.23
2022-08-21T15:12:04.545Z,2.28
2022-08-21T15:15:09.269Z,2.20
2022-08-21T15:18:12.562Z,2.30
2022-08-21T15:21:15.451Z,2.28
2022-08-21T15:24:18.542Z,2.30
2022-08-21T15:27:21.641Z,2.50
2022-08-21T15:30:24.735Z,2.80
2022-08-21T15:33:27.825Z,2.72
2022-08-21T15:36:30.923Z,2.75
2022-08-21T15:39:37.663Z,2.70
2022-08-21T15:42:43.559Z,2.67
2022-08-21T15:45:46.546Z,3.40
2022-08-21T15:48:49.741Z,3.20
2022-08-21T15:51:52.835Z,3.00
2022-08-21T15:54:56.446Z,3.87
2022-08-21T15:58:02.807Z,4.40
2022-08-21T16:01:08.647Z,4.40
2022-08-21T16:04:14.124Z,4.40
2022-08-21T16:07:17.724Z,4.30
2022-08-21T16:10:23.488Z,4.23
2022-08-21T16:13:37.735Z,4.38
2022-08-21T16:16:41.141Z,5.00
2022-08-21T16:19:44.121Z,4.63
2022-08-21T16:22:47.840Z,4.18
2022-08-21T16:25:51.239Z,4.80
2022-08-21T16:28:58.419Z,4.93
2022-08-21T16:32:01.628Z,5.30
2022-08-21T16:35:05.436Z,5.32
2022-08-21T16:38:08.627Z,5.20
2022-08-21T16:41:16.126Z,5.90
2022-08-21T16:44:20.552Z,5.78
2022-08-21T16:47:26.951Z,5.85
2022-08-21T16:50:30.531Z,5.18
2022-08-21T16:53:33.831Z,5.45
2022-08-21T16:56:39.865Z,5.40
2022-08-21T16:59:43.907Z,5.30
2022-08-21T17:02:49.561Z,5.50
2022-08-21T17:05:52.653Z,6.03
2022-08-21T17:08:55.749Z,5.72
2022-08-21T17:11:58.841Z,5.80
2022-08-21T17:15:05.816Z,5.45
2022-08-21T17:18:10.859Z,6.43
2022-08-21T17:21:18.440Z,4.95
2022-08-21T17:24:21.456Z,5.05
2022-08-21T17:27:26.869Z,4.23
2022-08-21T17:30:30.406Z,4.15
2022-08-21T17:33:37.699Z,4.20
2022-08-21T17:36:41.309Z,4.03
2022-08-21T17:39:44.138Z,4.13
2022-08-21T17:42:47.407Z,4.13
2022-08-21T17:45:50.074Z,4.13
2022-08-21T17:48:52.528Z,4.32
2022-08-21T17:51:55.588Z,4.70
2022-08-21T17:54:58.909Z,4.57
2022-08-21T17:58:03.845Z,4.83
2022-08-21T18:01:06.141Z,4.85
2022-08-21T18:04:09.765Z,5.55
2022-08-21T18:07:12.102Z,4.47
2022-08-21T18:10:27.479Z,4.10
2022-08-21T18:13:33.545Z,4.37
2022-08-21T18:16:37.927Z,4.15
2022-08-21T18:19:48.821Z,4.80
2022-08-21T18:22:51.712Z,4.68
2022-08-21T18:25:56.923Z,4.78
2022-08-21T18:29:01.586Z,4.53
2022-08-21T18:32:05.108Z,4.57
2022-08-21T18:35:27.642Z,5.88
2022-08-21T18:38:31.129Z,4.95
2022-08-21T18:41:33.589Z,5.18
2022-08-21T18:45:16.920Z,5.17
2022-08-21T18:48:20.689Z,5.10
2022-08-21T18:51:24.349Z,4.82
2022-08-21T18:54:31.539Z,5.10
2022-08-21T18:57:34.965Z,5.07
2022-08-21T19:00:46.043Z,5.20
2022-08-21T19:03:49.808Z,5.05
2022-08-21T19:06:52.623Z,5.55
2022-08-21T19:10:24.447Z,5.28
2022-08-21T19:13:21.664Z,5.07
2022-08-21T19:16:24.428Z,6.20
2022-08-21T19:19:27.103Z,6.05
2022-08-21T19:22:29.483Z,6.32
2022-08-21T19:25:33.846Z,6.43
2022-08-21T19:32:07.048Z,6.20
2022-08-21T19:35:09.855Z,5.60
2022-08-21T19:38:15.993Z,5.85
2022-08-21T19:41:21.259Z,5.80
2022-08-21T19:44:26.250Z,5.68
2022-08-21T19:47:29.716Z,5.67
2022-08-21T19:50:37.412Z,5.80
2022-08-21T19:53:39.684Z,4.95
2022-08-21T19:56:42.817Z,4.50
2022-08-21T19:59:46.815Z,4.95
2022-08-21T20:02:49.606Z,5.10
2022-08-21T20:05:53.982Z,5.18
2022-08-21T20:08:57.633Z,4.75
2022-08-21T20:12:09.762Z,4.50
2022-08-21T20:15:23.024Z,4.70
2022-08-21T20:18:26.722Z,4.40
2022-08-21T20:21:30.785Z,4.20
2022-08-21T20:24:47.040Z,4.60
2022-08-21T20:27:49.543Z,4.03
2022-08-21T20:30:52.030Z,4.25
2022-08-21T20:33:54.246Z,4.20
2022-08-21T20:36:56.625Z,4.00
2022-08-21T20:39:59.054Z,3.75
2022-08-21T20:43:02.639Z,3.53
2022-08-21T20:46:05.409Z,4.07
2022-08-21T20:49:18.398Z,3.73
2022-08-21T20:52:21.125Z,4.05
2022-08-21T20:55:29.139Z,4.07
2022-08-21T20:58:45.915Z,4.18
2022-08-21T21:01:50.121Z,4.20
2022-08-21T21:04:58.434Z,4.93
2022-08-21T21:08:26.721Z,4.90
2022-08-21T21:11:43.263Z,5.53
2022-08-21T21:14:49.114Z,5.03
2022-08-21T21:18:03.408Z,5.47
2022-08-21T21:21:10.255Z,5.80
2022-08-21T21:24:38.282Z,5.57
2022-08-21T21:27:50.986Z,5.53
2022-08-21T21:30:57.767Z,6.05
2022-08-21T21:34:01.517Z,5.57
2022-08-21T21:37:08.859Z,5.80
2022-08-21T21:40:40.445Z,6.72
2022-08-21T21:44:08.581Z,6.60
2022-08-21T21:47:29.676Z,6.95
2022-08-21T21:50:45.808Z,7.10
2022-08-21T21:54:16.185Z,7.13
2022-08-21T21:57:45.929Z,7.10
2022-08-21T22:00:58.815Z,7.55
2022-08-21T22:04:28.597Z,8.35
2022-08-21T22:07:57.967Z,7.78
2022-08-21T22:11:24.199Z,8.50
2022-08-21T22:14:40.290Z,7.63
2022-08-21T22:17:47.065Z,8.80
2022-08-21T22:21:10.536Z,8.55
2022-08-21T22:24:23.753Z,8.43
2022-08-21T22:27:34.071Z,9.13
2022-08-21T22:30:45.358Z,8.18
2022-08-21T22:34:20.173Z,7.30
2022-08-21T22:37:34.847Z,7.15
2022-08-21T22:40:37.171Z,6.97
2022-08-21T22:43:51.878Z,7.23
2022-08-21T22:47:02.122Z,5.50
2022-08-21T22:50:26.991Z,5.55
2022-08-21T22:53:33.830Z,5.65
2022-08-21T22:56:43.383Z,5.30
2022-08-21T23:00:00.788Z,5.63
2022-08-21T23:03:03.607Z,5.55
2022-08-21T23:06:22.929Z,5.40
2022-08-21T23:09:28.134Z,4.35
2022-08-21T23:12:36.204Z,3.80
2022-08-21T23:16:00.351Z,4.60
2022-08-21T23:19:11.513Z,4.03
2022-08-21T23:22:34.189Z,4.00
2022-08-21T23:33:45.409Z,5.47
2022-08-21T23:37:18.751Z,5.10
2022-08-21T23:40:50.872Z,5.55
2022-08-21T23:48:21.578Z,5.85
2022-08-21T23:52:07.549Z,6.30
2022-08-21T23:55:20.860Z,5.40
2022-08-21T23:58:50.467Z,5.70
